createdAt,value
2023-05-22T00:02:04.889Z,54.67
2023-05-22T00:07:12.015Z,54.13
2023-05-22T00:12:21.256Z,54.55
2023-05-22T00:17:30.317Z,54.23
2023-05-22T00:22:37.396Z,53.65
2023-05-22T00:27:44.407Z,54.17
2023-05-22T00:32:51.725Z,54.32
2023-05-22T00:37:58.801Z,54.13
2023-05-22T00:43:07.387Z,53.83
2023-05-22T00:48:15.742Z,53.43
2023-05-22T00:53:25.099Z,54.00
2023-05-22T00:58:32.971Z,53.97
2023-05-22T01:03:46.114Z,53.43
2023-05-22T01:08:53.563Z,53.23
2023-05-22T01:14:28.728Z,53.03
2023-05-22T01:19:59.077Z,52.93
2023-05-22T01:25:28.287Z,53.33
2023-05-22T01:30:57.568Z,54.03
2023-05-22T01:36:06.549Z,53.17
2023-05-22T01:41:14.541Z,53.20
2023-05-22T01:46:21.394Z,53.27
2023-05-22T01:51:57.346Z,53.97
2023-05-22T01:57:09.424Z,53.97
2023-05-22T02:02:20.142Z,52.77
2023-05-22T02:07:28.291Z,52.90
2023-05-22T02:12:36.674Z,52.55
2023-05-22T02:17:45.778Z,53.27
2023-05-22T02:22:53.028Z,52.53
2023-05-22T02:28:01.087Z,52.23
2023-05-22T02:33:09.581Z,52.60
2023-05-22T02:38:18.108Z,53.33
2023-05-22T02:43:25.337Z,52.32
2023-05-22T02:48:32.407Z,52.50
2023-05-22T03:03:55.679Z,51.48
2023-05-22T03:09:04.125Z,52.40
2023-05-22T03:14:11.332Z,52.03
2023-05-22T03:19:20.954Z,52.30
2023-05-22T03:24:28.739Z,52.40
2023-05-22T03:29:36.549Z,52.47
2023-05-22T03:34:44.150Z,52.67
2023-05-22T03:39:51.730Z,51.67
2023-05-22T03:45:00.694Z,51.77
2023-05-22T03:50:08.506Z,52.53
2023-05-22T03:55:15.294Z,52.40
2023-05-22T04:00:23.879Z,52.53
2023-05-22T04:05:35.067Z,52.50
2023-05-22T04:10:42.894Z,52.17
2023-05-22T04:15:50.532Z,52.03
2023-05-22T04:20:57.778Z,52.97
2023-05-22T04:26:04.689Z,52.40
2023-05-22T04:31:13.416Z,53.40
2023-05-22T04:36:22.606Z,53.20
2023-05-22T04:41:32.844Z,52.70
2023-05-22T04:46:40.819Z,53.35
2023-05-22T04:51:49.180Z,53.30
2023-05-22T04:56:56.877Z,54.73
2023-05-22T05:02:05.396Z,56.27
2023-05-22T05:07:13.705Z,54.63
2023-05-22T05:12:21.747Z,54.97
2023-05-22T05:17:29.038Z,54.73
2023-05-22T05:22:37.537Z,54.75
2023-05-22T05:27:44.572Z,56.63
2023-05-22T05:32:52.195Z,55.40
2023-05-22T05:38:00.023Z,55.53
2023-05-22T05:43:09.298Z,55.53
2023-05-22T05:48:18.190Z,55.67
2023-05-22T05:53:25.253Z,55.93
2023-05-22T05:58:32.881Z,56.28
2023-05-22T06:03:41.009Z,56.47
2023-05-22T06:08:48.347Z,55.43
2023-05-22T06:13:57.333Z,55.87
2023-05-22T06:19:05.305Z,55.67
2023-05-22T06:24:13.174Z,55.57
2023-05-22T06:29:21.977Z,54.82
2023-05-22T06:34:30.086Z,55.17
2023-05-22T06:39:36.788Z,56.40
2023-05-22T06:49:49.664Z,55.78
2023-05-22T06:54:58.612Z,56.23
2023-05-22T07:00:11.784Z,56.13
2023-05-22T07:05:20.391Z,55.93
2023-05-22T07:10:27.990Z,55.85
2023-05-22T07:15:35.770Z,54.73
2023-05-22T07:20:43.153Z,55.43
2023-05-22T07:25:54.031Z,55.90
2023-05-22T07:31:01.537Z,55.13
2023-05-22T07:36:09.393Z,55.23
2023-05-22T07:41:16.776Z,55.67
2023-05-22T07:46:23.405Z,55.90
2023-05-22T07:51:31.531Z,55.63
2023-05-22T07:56:41.378Z,55.48
2023-05-22T08:01:49.739Z,55.63
2023-05-22T08:06:57.439Z,56.23
2023-05-22T08:12:07.561Z,55.77
2023-05-22T08:17:14.720Z,56.40
2023-05-22T08:22:21.397Z,56.63
2023-05-22T08:27:28.430Z,56.68
2023-05-22T08:32:35.376Z,56.93
2023-05-22T08:37:42.440Z,56.37
2023-05-22T08:42:51.147Z,57.03
2023-05-22T08:47:59.683Z,56.37
2023-05-22T08:53:09.564Z,56.25
2023-05-22T08:58:17.557Z,56.47
2023-05-22T09:03:25.096Z,57.37
2023-05-22T09:08:33.442Z,56.20
2023-05-22T09:13:42.613Z,56.77
2023-05-22T09:18:50.785Z,56.40
2023-05-22T09:24:02.610Z,56.75
2023-05-22T09:29:10.895Z,56.73
2023-05-22T09:34:18.518Z,56.70
2023-05-22T09:39:25.603Z,56.67
2023-05-22T09:44:33.869Z,56.83
2023-05-22T09:49:47.255Z,57.27
2023-05-22T09:54:57.398Z,56.27
2023-05-22T10:00:08.257Z,55.90
2023-05-22T10:05:18.743Z,56.53
2023-05-22T10:10:28.443Z,55.37
2023-05-22T10:15:36.797Z,55.63
2023-05-22T10:20:45.032Z,56.65
2023-05-22T10:25:53.879Z,55.70
2023-05-22T10:31:17.669Z,56.43
2023-05-22T10:36:29.672Z,56.07
2023-05-22T10:41:37.306Z,56.13
2023-05-22T10:46:51.832Z,55.97
2023-05-22T10:52:06.033Z,55.93
2023-05-22T10:57:18.516Z,56.67
2023-05-22T11:02:32.004Z,56.10
2023-05-22T11:07:42.311Z,55.90
2023-05-22T11:12:50.217Z,56.27
2023-05-22T11:18:01.038Z,56.67
2023-05-22T11:23:09.870Z,56.17
2023-05-22T11:28:17.282Z,55.90
2023-05-22T11:33:25.805Z,56.20
2023-05-22T11:38:33.767Z,56.90
2023-05-22T11:43:42.495Z,56.50
2023-05-22T11:48:50.034Z,56.10
2023-05-22T11:53:58.249Z,56.40
2023-05-22T11:59:06.265Z,56.33
2023-05-22T12:04:14.184Z,56.77
2023-05-22T12:09:21.658Z,56.95
2023-05-22T12:14:31.363Z,57.00
2023-05-22T12:19:42.141Z,57.05
2023-05-22T12:24:52.161Z,56.63
2023-05-22T12:30:00.356Z,57.03
2023-05-22T12:35:11.087Z,57.35
2023-05-22T12:40:19.723Z,56.68
2023-05-22T12:45:26.300Z,56.07
2023-05-22T12:50:34.996Z,56.53
2023-05-22T12:55:42.962Z,56.07
2023-05-22T13:00:50.919Z,56.63
2023-05-22T13:05:58.288Z,56.00
2023-05-22T13:11:06.140Z,56.70
2023-05-22T13:16:13.601Z,56.50
2023-05-22T13:21:24.108Z,56.58
2023-05-22T13:26:32.217Z,56.53
2023-05-22T13:31:39.456Z,56.10
2023-05-22T13:36:47.243Z,56.67
2023-05-22T13:41:56.634Z,56.10
2023-05-22T13:47:05.217Z,56.17
2023-05-22T13:52:12.920Z,56.25
2023-05-22T13:57:21.519Z,56.18
2023-05-22T14:02:28.563Z,56.30
2023-05-22T14:07:35.708Z,56.90
2023-05-22T14:12:43.654Z,56.35
2023-05-22T14:17:50.602Z,56.57
2023-05-22T14:22:58.396Z,56.03
2023-05-22T14:28:05.927Z,55.70
2023-05-22T14:33:12.922Z,55.47
2023-05-22T14:38:21.830Z,55.63
2023-05-22T14:43:28.512Z,55.63
2023-05-22T14:48:36.205Z,55.63
2023-05-22T14:53:43.311Z,56.05
2023-05-22T14:58:52.422Z,56.00
2023-05-22T15:03:59.528Z,56.05
2023-05-22T15:09:06.708Z,55.43
2023-05-22T15:14:14.133Z,56.03
2023-05-22T15:19:21.714Z,56.20
2023-05-22T15:24:30.788Z,55.87
2023-05-22T15:29:37.836Z,55.57
2023-05-22T15:34:44.890Z,55.67
2023-05-22T15:39:52.862Z,56.07
2023-05-22T15:45:02.040Z,55.40
2023-05-22T15:50:09.694Z,55.17
2023-05-22T15:55:19.181Z,55.97
2023-05-22T16:00:28.156Z,55.77
2023-05-22T16:05:35.826Z,55.48
2023-05-22T16:10:45.995Z,55.90
2023-05-22T16:15:53.304Z,55.80
2023-05-22T16:21:01.579Z,56.73
2023-05-22T16:26:09.005Z,55.70
2023-05-22T16:31:19.505Z,55.27
2023-05-22T16:36:27.319Z,55.47
2023-05-22T16:41:35.336Z,54.83
2023-05-22T16:46:42.717Z,55.67
2023-05-22T16:51:49.865Z,55.70
2023-05-22T16:56:57.038Z,55.20
2023-05-22T17:02:04.080Z,55.30
2023-05-22T17:07:12.746Z,54.53
2023-05-22T17:12:19.651Z,55.13
2023-05-22T17:17:27.327Z,54.62
2023-05-22T17:22:36.477Z,55.23
2023-05-22T17:27:44.256Z,55.20
2023-05-22T17:32:53.634Z,55.13
2023-05-22T17:38:09.417Z,56.67
2023-05-22T17:43:18.581Z,58.00
2023-05-22T17:48:27.554Z,55.98
2023-05-22T17:53:37.182Z,55.20
2023-05-22T17:58:43.869Z,55.07
2023-05-22T18:03:51.195Z,54.77
2023-05-22T18:08:58.567Z,54.50
2023-05-22T18:14:06.272Z,54.73
2023-05-22T18:19:13.612Z,54.60
2023-05-22T18:24:26.249Z,54.53
2023-05-22T18:29:33.921Z,54.18
2023-05-22T18:34:42.568Z,54.03
2023-05-22T18:39:50.757Z,54.33
2023-05-22T18:44:59.201Z,54.37
2023-05-22T18:50:08.249Z,54.67
2023-05-22T18:55:16.006Z,54.67
2023-05-22T19:00:24.180Z,54.47
2023-05-22T19:05:33.180Z,54.30
2023-05-22T19:10:40.051Z,54.03
2023-05-22T19:15:48.308Z,54.23
2023-05-22T19:20:58.349Z,54.33
2023-05-22T19:26:06.424Z,54.60
2023-05-22T19:31:13.534Z,55.33
2023-05-22T19:36:22.364Z,55.35
2023-05-22T19:41:30.852Z,53.80
2023-05-22T19:46:39.637Z,53.50
2023-05-22T19:51:47.181Z,53.57
2023-05-22T19:56:54.797Z,53.83
2023-05-22T20:02:02.819Z,53.37
2023-05-22T20:07:14.254Z,52.97
2023-05-22T20:12:23.109Z,52.93
2023-05-22T20:17:32.650Z,53.08
2023-05-22T20:22:40.488Z,53.58
2023-05-22T20:27:47.612Z,53.10
2023-05-22T20:32:55.862Z,53.10
2023-05-22T20:38:03.463Z,53.33
2023-05-22T20:43:12.959Z,53.05
2023-05-22T20:48:21.817Z,52.80
2023-05-22T20:53:29.414Z,53.17
2023-05-22T20:58:39.046Z,52.67
2023-05-22T21:03:48.225Z,53.52
2023-05-22T21:08:57.724Z,52.67
2023-05-22T21:14:05.129Z,52.77
2023-05-22T21:19:12.816Z,53.17
2023-05-22T21:24:20.361Z,53.67
2023-05-22T21:29:27.626Z,52.75
2023-05-22T21:34:34.692Z,52.83
2023-05-22T21:39:41.820Z,53.00
2023-05-22T21:44:49.582Z,52.80
2023-05-22T21:49:56.837Z,53.08
2023-05-22T22:00:10.591Z,52.80
2023-05-22T22:05:19.037Z,53.00
2023-05-22T22:10:28.252Z,53.40
2023-05-22T22:15:36.857Z,54.17
2023-05-22T22:20:47.135Z,52.60
2023-05-22T22:25:54.156Z,53.20
2023-05-22T22:31:01.669Z,53.07
2023-05-22T22:36:09.618Z,53.60
2023-05-22T22:41:17.844Z,52.90
2023-05-22T22:46:24.890Z,52.53
2023-05-22T22:51:32.869Z,52.80
2023-05-22T22:56:40.892Z,52.30
2023-05-22T23:01:48.482Z,53.50
2023-05-22T23:06:57.315Z,53.00
2023-05-22T23:12:04.019Z,53.10
2023-05-22T23:17:11.080Z,53.13
2023-05-22T23:22:19.699Z,52.67
2023-05-22T23:27:27.083Z,52.45
2023-05-22T23:32:34.871Z,52.45
2023-05-22T23:37:42.366Z,52.63
2023-05-22T23:42:49.701Z,52.83
2023-05-22T23:47:57.167Z,52.90
2023-05-22T23:53:04.855Z,52.73
2023-05-22T23:58:11.636Z,52.57
